Philomath, Oregon
Current Conditions -  °F | °C
As of 12:35 AM on Friday 28 Nov 2014 (Local Time) from KCVO Reporting Station
Overcast Overcast  
Wind Chill: 54°   Ceiling: 3200
Heat Index: 54°   Visibility: 5mi
Dew Point: 50°   Wind: 6mph
Humidity: 88%   Direction: 160°SSE
Pressure: 29.83"   Gusts: NA
Location:  44.54°N, 123.37°W
Report Text: KCVO 280835Z AUTO 16005KT 5SM OVC032 12/10 A2983 RMK AO1 P0001
Loading
Personal Weather Stations






























Interactive Weather Map New forecast layout! Learn more

10-Day Weather Forecast

Advertisements
Track Severe Weather on mobile